createdAt,value
2023-03-13T00:01:02.012Z,22.33
2023-03-13T00:03:28.533Z,17.25
2023-03-13T00:05:58.320Z,14.18
2023-03-13T00:08:25.046Z,23.15
2023-03-13T00:10:51.504Z,21.40
2023-03-13T00:13:17.761Z,15.18
2023-03-13T00:15:44.045Z,17.40
2023-03-13T00:18:10.336Z,13.90
2023-03-13T00:20:36.533Z,15.55
2023-03-13T00:23:02.724Z,13.90
2023-03-13T00:25:28.993Z,16.88
2023-03-13T00:27:55.224Z,20.95
2023-03-13T00:30:21.469Z,18.70
2023-03-13T00:32:48.447Z,19.27
2023-03-13T00:35:15.730Z,16.63
2023-03-13T00:37:42.775Z,14.38
2023-03-13T00:40:09.558Z,22.27
2023-03-13T00:42:36.275Z,16.00
2023-03-13T00:45:03.358Z,21.30
2023-03-13T00:47:29.631Z,21.35
2023-03-13T00:49:55.856Z,12.75
2023-03-13T00:52:22.245Z,13.00
2023-03-13T00:54:48.466Z,15.73
2023-03-13T00:57:14.659Z,27.50
2023-03-13T00:59:40.936Z,17.42
2023-03-13T01:02:07.217Z,16.30
2023-03-13T01:04:33.500Z,15.02
2023-03-13T01:06:59.715Z,16.17
2023-03-13T01:09:25.938Z,13.73
2023-03-13T01:11:52.208Z,16.60
2023-03-13T01:14:19.313Z,15.05
2023-03-13T01:16:45.548Z,18.90
2023-03-13T01:19:13.568Z,16.08
2023-03-13T01:21:40.769Z,19.02
2023-03-13T01:24:07.190Z,16.10
2023-03-13T01:26:33.412Z,17.83
2023-03-13T01:28:59.672Z,13.60
2023-03-13T01:31:27.404Z,15.25
2023-03-13T01:33:54.842Z,16.60
2023-03-13T01:36:21.081Z,23.80
2023-03-13T01:38:51.392Z,25.08
2023-03-13T01:41:18.254Z,16.98
2023-03-13T01:43:44.664Z,11.32
2023-03-13T01:46:10.912Z,16.95
2023-03-13T01:48:43.249Z,14.13
2023-03-13T01:51:11.641Z,14.93
2023-03-13T01:53:39.528Z,14.20
2023-03-13T01:56:07.644Z,12.35
2023-03-13T01:58:34.028Z,16.20
2023-03-13T02:01:00.516Z,16.50
2023-03-13T02:03:27.942Z,18.13
2023-03-13T02:05:55.489Z,14.43
2023-03-13T02:08:24.158Z,16.08
2023-03-13T02:11:22.686Z,13.85
2023-03-13T02:13:49.994Z,9.18
2023-03-13T02:16:16.454Z,36.22
2023-03-13T02:18:42.832Z,14.85
2023-03-13T02:21:12.782Z,15.75
2023-03-13T02:23:47.625Z,14.43
2023-03-13T02:26:13.885Z,10.35
2023-03-13T02:28:40.264Z,15.23
2023-03-13T02:31:06.866Z,13.35
2023-03-13T02:33:36.610Z,13.73
2023-03-13T02:36:03.211Z,11.98
2023-03-13T02:38:31.203Z,11.73
2023-03-13T02:40:59.304Z,12.20
2023-03-13T02:43:35.701Z,14.73
2023-03-13T02:46:03.405Z,12.98
2023-03-13T02:48:34.777Z,13.20
2023-03-13T02:51:02.356Z,14.90
2023-03-13T02:53:28.648Z,10.13
2023-03-13T02:55:55.319Z,32.90
2023-03-13T02:58:23.502Z,17.63
2023-03-13T03:00:49.784Z,5.50
2023-03-13T03:03:16.019Z,6.22
2023-03-13T03:05:42.260Z,9.48
2023-03-13T03:08:08.503Z,7.10
2023-03-13T03:10:36.045Z,7.15
2023-03-13T03:13:02.445Z,6.13
2023-03-13T03:15:28.700Z,12.23
2023-03-13T03:17:54.934Z,10.90
2023-03-13T03:20:21.263Z,8.68
2023-03-13T03:22:47.504Z,8.90
2023-03-13T03:25:13.867Z,5.93
2023-03-13T03:27:40.117Z,9.88
2023-03-13T03:30:07.127Z,11.23
2023-03-13T03:34:59.697Z,21.17
2023-03-13T03:37:26.250Z,20.88
2023-03-13T03:39:52.762Z,33.58
2023-03-13T03:42:18.991Z,9.85
2023-03-13T03:44:45.288Z,6.95
2023-03-13T03:47:11.631Z,11.30
2023-03-13T03:49:37.920Z,4.97
2023-03-13T03:52:04.321Z,10.80
2023-03-13T03:54:30.577Z,8.57
2023-03-13T03:56:56.855Z,4.38
2023-03-13T03:59:23.210Z,3.50
2023-03-13T04:01:49.550Z,7.25
2023-03-13T04:04:15.812Z,4.38
2023-03-13T04:06:42.039Z,3.42
2023-03-13T04:09:08.315Z,3.22
2023-03-13T04:11:34.566Z,6.15
2023-03-13T04:14:00.787Z,21.48
2023-03-13T04:16:27.092Z,20.52
2023-03-13T04:18:53.343Z,13.10
2023-03-13T04:21:19.594Z,8.05
2023-03-13T04:23:45.837Z,6.47
2023-03-13T04:26:12.141Z,8.93
2023-03-13T04:28:38.381Z,6.63
2023-03-13T04:31:04.853Z,6.78
2023-03-13T04:33:31.111Z,8.77
2023-03-13T04:35:57.400Z,11.43
2023-03-13T04:38:23.689Z,6.97
2023-03-13T04:40:50.004Z,10.27
2023-03-13T04:43:16.356Z,7.22
2023-03-13T04:45:42.602Z,7.85
2023-03-13T04:48:09.014Z,6.70
2023-03-13T04:50:35.222Z,6.72
2023-03-13T04:53:01.467Z,9.18
2023-03-13T04:55:27.740Z,3.67
2023-03-13T04:57:53.981Z,6.45
2023-03-13T05:00:20.399Z,8.75
2023-03-13T05:02:46.674Z,6.20
2023-03-13T05:05:12.960Z,7.35
2023-03-13T05:07:39.222Z,4.07
2023-03-13T05:10:05.612Z,10.77
2023-03-13T05:12:31.909Z,6.03
2023-03-13T05:14:58.139Z,6.68
2023-03-13T05:17:24.370Z,5.88
2023-03-13T05:19:50.683Z,5.53
2023-03-13T05:22:16.906Z,7.57
2023-03-13T05:24:43.128Z,3.80
2023-03-13T05:27:09.366Z,22.50
2023-03-13T05:29:35.648Z,4.72
2023-03-13T05:32:01.881Z,17.33
2023-03-13T05:34:28.093Z,4.43
2023-03-13T05:36:54.333Z,5.30
2023-03-13T05:39:20.662Z,5.78
2023-03-13T05:41:46.900Z,2.70
2023-03-13T05:44:13.122Z,2.05
2023-03-13T05:46:39.398Z,5.55
2023-03-13T05:49:05.670Z,5.90
2023-03-13T05:51:32.008Z,3.28
2023-03-13T05:53:58.239Z,3.90
2023-03-13T05:56:24.454Z,3.65
2023-03-13T05:58:50.702Z,4.25
2023-03-13T06:01:17.018Z,4.68
2023-03-13T06:03:43.335Z,3.15
2023-03-13T06:06:09.687Z,5.07
2023-03-13T06:08:35.932Z,3.00
2023-03-13T06:11:02.415Z,2.40
2023-03-13T06:13:29.213Z,1.58
2023-03-13T06:15:56.331Z,4.07
2023-03-13T06:18:23.046Z,3.90
2023-03-13T06:20:49.852Z,1.45
2023-03-13T06:23:16.391Z,3.40
2023-03-13T06:25:46.814Z,2.45
2023-03-13T06:28:13.197Z,3.22
2023-03-13T06:30:39.553Z,2.28
2023-03-13T06:33:05.906Z,3.70
2023-03-13T06:35:32.280Z,0.85
2023-03-13T06:37:58.540Z,3.72
2023-03-13T06:40:24.781Z,1.98
2023-03-13T06:42:51.033Z,1.98
2023-03-13T06:45:17.326Z,2.35
2023-03-13T06:47:43.583Z,2.33
2023-03-13T06:50:10.894Z,2.20
2023-03-13T06:52:44.026Z,1.85
2023-03-13T06:55:10.855Z,1.83
2023-03-13T06:57:37.156Z,1.35
2023-03-13T07:00:05.981Z,2.95
2023-03-13T07:02:32.321Z,2.00
2023-03-13T07:04:58.610Z,2.20
2023-03-13T07:07:31.699Z,0.73
2023-03-13T07:09:58.933Z,5.15
2023-03-13T07:12:25.227Z,1.60
2023-03-13T07:14:51.450Z,3.42
2023-03-13T07:17:17.762Z,1.98
2023-03-13T07:19:44.079Z,6.72
2023-03-13T07:22:10.499Z,4.40
2023-03-13T07:24:36.861Z,5.00
2023-03-13T07:27:07.519Z,1.58
2023-03-13T07:29:34.276Z,3.35
2023-03-13T07:32:00.562Z,1.92
2023-03-13T07:34:26.846Z,0.60
2023-03-13T07:36:53.154Z,0.73
2023-03-13T07:39:19.402Z,3.33
2023-03-13T07:41:45.714Z,2.45
2023-03-13T07:44:11.985Z,3.15
2023-03-13T07:46:38.243Z,4.20
2023-03-13T07:49:04.538Z,1.83
2023-03-13T07:51:42.920Z,5.03
2023-03-13T07:54:10.454Z,1.40
2023-03-13T07:56:36.773Z,1.02
2023-03-13T07:59:03.005Z,2.05
2023-03-13T08:01:31.033Z,1.88
2023-03-13T08:03:58.574Z,1.25
2023-03-13T08:06:25.549Z,1.65
2023-03-13T08:11:19.567Z,1.17
2023-03-13T08:13:46.197Z,1.30
2023-03-13T08:16:12.475Z,1.23
2023-03-13T08:18:39.988Z,7.45
2023-03-13T08:21:07.695Z,6.25
2023-03-13T08:23:34.020Z,1.42
2023-03-13T08:26:09.115Z,2.30
2023-03-13T08:28:35.814Z,3.70
2023-03-13T08:31:21.720Z,10.25
2023-03-13T08:33:48.060Z,6.18
2023-03-13T08:36:18.799Z,10.02
2023-03-13T08:38:46.583Z,2.42
2023-03-13T08:41:14.054Z,12.35
2023-03-13T08:43:40.284Z,5.47
2023-03-13T08:46:06.593Z,3.72
2023-03-13T08:48:32.880Z,2.58
2023-03-13T08:51:09.971Z,3.00
2023-03-13T08:53:37.682Z,2.80
2023-03-13T08:56:07.150Z,2.50
2023-03-13T08:58:33.516Z,3.30
2023-03-13T09:01:03.606Z,1.77
2023-03-13T09:03:29.958Z,2.70
2023-03-13T09:05:56.930Z,2.38
2023-03-13T09:10:54.902Z,1.88
2023-03-13T09:13:21.136Z,2.53
2023-03-13T09:15:53.772Z,5.47
2023-03-13T09:18:20.485Z,1.67
2023-03-13T09:20:48.894Z,4.60
2023-03-13T09:23:15.275Z,2.50
2023-03-13T09:25:41.510Z,2.40
2023-03-13T09:28:07.767Z,2.80
2023-03-13T09:30:34.006Z,2.45
2023-03-13T09:33:00.310Z,4.03
2023-03-13T09:35:26.662Z,2.38
2023-03-13T09:37:52.894Z,3.47
2023-03-13T09:40:20.486Z,2.40
2023-03-13T09:42:49.968Z,3.28
2023-03-13T09:45:18.618Z,1.50
2023-03-13T09:47:54.337Z,2.00
2023-03-13T09:50:23.706Z,4.93
2023-03-13T09:52:51.243Z,4.40
2023-03-13T09:55:22.695Z,5.03
2023-03-13T09:57:48.899Z,2.90
2023-03-13T10:00:19.652Z,2.40
2023-03-13T10:02:47.454Z,4.22
2023-03-13T10:05:13.762Z,3.45
2023-03-13T10:07:40.172Z,3.50
2023-03-13T10:10:26.704Z,5.57
2023-03-13T10:12:56.879Z,2.08
2023-03-13T10:15:29.727Z,3.65
2023-03-13T10:17:56.045Z,5.43
2023-03-13T10:20:26.463Z,23.27
2023-03-13T10:23:14.137Z,6.15
2023-03-13T10:25:40.532Z,3.35
2023-03-13T10:28:10.822Z,2.42
2023-03-13T10:30:39.491Z,6.25
2023-03-13T10:33:08.580Z,6.40
2023-03-13T10:35:36.662Z,3.70
2023-03-13T10:38:04.880Z,2.45
2023-03-13T10:40:31.399Z,6.47
2023-03-13T10:43:02.525Z,3.28
2023-03-13T10:45:31.835Z,4.90
2023-03-13T10:48:01.146Z,2.72
2023-03-13T10:50:27.895Z,5.68
2023-03-13T10:52:55.071Z,5.28
2023-03-13T10:55:23.022Z,4.55
2023-03-13T10:58:05.456Z,9.70
2023-03-13T11:00:36.013Z,5.20
2023-03-13T11:03:05.296Z,6.15
2023-03-13T11:05:40.155Z,2.50
2023-03-13T11:08:32.669Z,3.15
2023-03-13T11:11:00.619Z,3.95
2023-03-13T11:13:37.029Z,3.42
2023-03-13T11:16:18.949Z,7.32
2023-03-13T11:19:04.043Z,1.42
2023-03-13T11:21:36.470Z,3.75
2023-03-13T11:24:13.438Z,3.60
2023-03-13T11:26:55.095Z,2.20
2023-03-13T11:29:34.441Z,3.47
2023-03-13T11:32:07.413Z,4.68
2023-03-13T11:34:54.935Z,5.60
2023-03-13T11:37:22.382Z,4.40
2023-03-13T11:39:53.583Z,4.53
2023-03-13T11:42:35.595Z,5.95
2023-03-13T11:45:01.789Z,2.67
2023-03-13T11:47:28.007Z,3.33
2023-03-13T11:49:54.232Z,6.05
2023-03-13T11:52:38.029Z,3.65
2023-03-13T11:55:13.211Z,2.55
2023-03-13T11:57:54.459Z,2.72
2023-03-13T12:00:23.773Z,7.28
2023-03-13T12:02:54.411Z,3.47
2023-03-13T12:05:21.371Z,5.05
2023-03-13T12:07:53.404Z,1.50
2023-03-13T12:10:40.012Z,2.13
2023-03-13T12:13:15.459Z,2.60
2023-03-13T12:15:43.323Z,1.73
2023-03-13T12:18:14.929Z,2.47
2023-03-13T12:20:44.435Z,2.85
2023-03-13T12:23:15.312Z,1.80
2023-03-13T12:25:44.830Z,2.47
2023-03-13T12:28:11.149Z,4.97
2023-03-13T12:30:39.904Z,4.75
2023-03-13T12:33:15.689Z,5.18
2023-03-13T12:35:44.058Z,1.77
2023-03-13T12:38:15.116Z,1.70
2023-03-13T12:40:44.719Z,2.15
2023-03-13T12:43:17.406Z,1.27
2023-03-13T12:45:54.530Z,5.25
2023-03-13T12:48:30.085Z,4.40
2023-03-13T12:50:59.331Z,1.27
2023-03-13T12:53:33.577Z,3.17
2023-03-13T12:56:12.160Z,4.80
2023-03-13T12:58:41.231Z,2.63
2023-03-13T13:01:08.042Z,1.80
2023-03-13T13:06:04.791Z,3.63
2023-03-13T13:08:33.940Z,8.70
2023-03-13T13:11:18.883Z,1.10
2023-03-13T13:13:45.145Z,2.58
2023-03-13T13:16:15.321Z,2.13
2023-03-13T13:18:41.593Z,1.80
2023-03-13T13:21:07.873Z,4.05
2023-03-13T13:23:38.934Z,1.88
2023-03-13T13:26:23.707Z,2.65
2023-03-13T13:28:50.218Z,2.03
2023-03-13T13:31:51.808Z,1.80
2023-03-13T13:34:30.775Z,1.40
2023-03-13T13:36:57.852Z,1.48
2023-03-13T13:39:59.629Z,1.70
2023-03-13T13:42:41.866Z,3.97
2023-03-13T13:45:17.172Z,3.58
2023-03-13T13:47:44.525Z,3.83
2023-03-13T13:50:21.192Z,2.03
2023-03-13T13:52:48.403Z,1.20
2023-03-13T13:55:26.681Z,2.58
2023-03-13T13:58:00.710Z,1.45
2023-03-13T14:00:28.923Z,1.52
2023-03-13T14:02:56.465Z,1.40
2023-03-13T14:05:24.427Z,1.30
2023-03-13T14:07:58.864Z,3.17
2023-03-13T14:10:29.139Z,2.55
2023-03-13T14:12:59.538Z,2.72
2023-03-13T14:15:27.211Z,1.73
2023-03-13T14:18:08.807Z,2.42
2023-03-13T14:20:35.077Z,2.30
2023-03-13T14:25:29.093Z,7.10
2023-03-13T14:27:56.099Z,1.45
2023-03-13T14:30:23.038Z,3.03
2023-03-13T14:32:50.733Z,1.23
2023-03-13T14:35:19.407Z,1.20
2023-03-13T14:37:47.890Z,1.33
2023-03-13T14:40:25.175Z,1.65
2023-03-13T14:42:58.595Z,3.08
2023-03-13T14:45:29.890Z,3.33
2023-03-13T14:48:00.781Z,2.13
2023-03-13T14:50:26.982Z,3.22
2023-03-13T14:55:22.464Z,2.00
2023-03-13T14:57:58.033Z,4.65
2023-03-13T15:00:30.632Z,3.45
2023-03-13T15:03:12.893Z,1.45
2023-03-13T15:05:39.142Z,2.28
2023-03-13T15:08:11.742Z,3.83
2023-03-13T15:10:38.478Z,0.75
2023-03-13T15:13:20.038Z,3.53
2023-03-13T15:15:50.058Z,1.50
2023-03-13T15:18:21.135Z,2.00
2023-03-13T15:20:51.339Z,1.50
2023-03-13T15:23:17.750Z,1.40
2023-03-13T15:25:44.265Z,1.90
2023-03-13T15:28:20.242Z,1.77
2023-03-13T15:30:47.884Z,5.70
2023-03-13T15:33:15.787Z,0.95
2023-03-13T15:35:42.457Z,1.88
2023-03-13T15:38:15.939Z,2.78
2023-03-13T15:40:42.842Z,4.05
2023-03-13T15:43:09.201Z,1.83
2023-03-13T15:45:36.448Z,1.52
2023-03-13T15:48:03.409Z,1.13
2023-03-13T15:50:30.826Z,5.22
2023-03-13T15:53:00.906Z,1.83
2023-03-13T15:55:28.097Z,1.75
2023-03-13T15:57:54.469Z,3.50
2023-03-13T16:00:22.161Z,1.77
2023-03-13T16:02:48.446Z,0.90
2023-03-13T16:05:15.151Z,2.22
2023-03-13T16:10:25.657Z,3.20
2023-03-13T16:12:52.398Z,1.45
2023-03-13T16:15:18.622Z,1.60
2023-03-13T16:17:44.932Z,5.13
2023-03-13T16:20:16.356Z,6.70
2023-03-13T16:22:42.702Z,3.78
2023-03-13T16:25:09.731Z,3.83
2023-03-13T16:27:36.104Z,6.18
2023-03-13T16:30:04.139Z,4.10
2023-03-13T16:32:30.449Z,4.45
2023-03-13T16:34:56.728Z,4.20
2023-03-13T16:37:23.052Z,11.93
2023-03-13T16:39:50.752Z,4.43
2023-03-13T16:42:17.013Z,17.80
2023-03-13T16:44:43.260Z,7.05
2023-03-13T16:47:27.918Z,7.18
2023-03-13T16:49:54.242Z,8.57
2023-03-13T16:52:20.480Z,3.50
2023-03-13T16:54:47.277Z,3.15
2023-03-13T16:59:39.800Z,8.38
2023-03-13T17:02:13.371Z,6.10
2023-03-13T17:04:40.842Z,1.63
2023-03-13T17:07:19.107Z,2.10
2023-03-13T17:09:45.718Z,7.60
2023-03-13T17:12:11.938Z,5.93
2023-03-13T17:14:38.183Z,4.68
2023-03-13T17:17:04.594Z,4.03
2023-03-13T17:19:31.244Z,1.80
2023-03-13T17:21:57.708Z,2.20
2023-03-13T17:24:23.991Z,1.80
2023-03-13T17:26:50.553Z,1.92
2023-03-13T17:29:18.667Z,2.72
2023-03-13T17:31:44.931Z,2.95
2023-03-13T17:34:11.864Z,3.10
2023-03-13T17:39:05.629Z,5.30
2023-03-13T17:41:32.816Z,6.85
2023-03-13T17:44:03.887Z,6.28
2023-03-13T17:46:33.813Z,10.82
2023-03-13T17:49:00.670Z,7.03
2023-03-13T17:51:28.142Z,8.00
2023-03-13T17:53:54.855Z,8.55
2023-03-13T17:56:28.393Z,4.28
2023-03-13T17:58:57.598Z,7.72
2023-03-13T18:01:24.857Z,3.60
2023-03-13T18:03:51.311Z,4.00
2023-03-13T18:06:27.862Z,5.50
2023-03-13T18:08:55.591Z,5.82
2023-03-13T18:11:22.533Z,5.32
2023-03-13T18:16:24.808Z,5.03
2023-03-13T18:18:51.247Z,8.85
2023-03-13T18:21:17.703Z,10.55
2023-03-13T18:23:43.921Z,35.70
2023-03-13T18:26:19.012Z,7.18
2023-03-13T18:28:45.263Z,9.20
2023-03-13T18:31:11.816Z,3.15
2023-03-13T18:33:38.290Z,4.03
2023-03-13T18:36:13.273Z,3.80
2023-03-13T18:38:39.678Z,4.53
2023-03-13T18:41:06.471Z,5.38
2023-03-13T18:43:32.715Z,3.00
2023-03-13T18:45:59.040Z,2.35
2023-03-13T18:48:25.331Z,2.80
2023-03-13T18:50:51.555Z,26.45
2023-03-13T18:53:17.787Z,15.13
2023-03-13T18:55:44.028Z,7.53
2023-03-13T18:58:11.127Z,3.65
2023-03-13T19:00:37.391Z,20.70
2023-03-13T19:03:03.652Z,29.60
2023-03-13T19:05:29.911Z,21.23
2023-03-13T19:07:56.265Z,9.55
2023-03-13T19:10:27.001Z,11.20
2023-03-13T19:12:54.040Z,7.28
2023-03-13T19:17:47.967Z,8.05
2023-03-13T19:20:15.631Z,3.20
2023-03-13T19:22:42.017Z,6.80
2023-03-13T19:25:08.819Z,13.25
2023-03-13T19:27:35.202Z,15.40
2023-03-13T19:30:01.447Z,12.55
2023-03-13T19:32:27.952Z,15.25
2023-03-13T19:34:54.194Z,22.02
2023-03-13T19:37:20.614Z,20.73
2023-03-13T19:39:46.907Z,18.50
2023-03-13T19:42:13.178Z,9.38
2023-03-13T19:44:40.370Z,12.43
2023-03-13T19:47:07.386Z,10.00
2023-03-13T19:52:00.357Z,11.63
2023-03-13T19:54:26.631Z,11.88
2023-03-13T19:56:53.456Z,5.93
2023-03-13T19:59:21.127Z,5.40
2023-03-13T20:01:47.579Z,3.38
2023-03-13T20:04:13.951Z,3.10
2023-03-13T20:06:41.005Z,3.80
2023-03-13T20:09:11.798Z,2.42
2023-03-13T20:11:38.274Z,2.17
2023-03-13T20:14:04.935Z,2.30
2023-03-13T20:16:33.617Z,4.25
2023-03-13T20:19:01.145Z,4.60
2023-03-13T20:21:28.239Z,2.78
2023-03-13T20:23:54.622Z,5.55
2023-03-13T20:26:21.395Z,2.15
2023-03-13T20:28:49.326Z,2.38
2023-03-13T20:31:17.306Z,2.30
2023-03-13T20:33:43.607Z,3.55
2023-03-13T20:36:11.043Z,1.65
2023-03-13T20:38:37.915Z,3.60
2023-03-13T20:41:04.328Z,2.85
2023-03-13T20:43:30.623Z,3.45
2023-03-13T20:45:57.172Z,2.55
2023-03-13T20:48:26.048Z,1.42
2023-03-13T20:50:53.376Z,2.75
2023-03-13T20:53:20.315Z,1.83
2023-03-13T20:58:13.019Z,2.63
2023-03-13T21:00:39.260Z,3.40
2023-03-13T21:03:05.636Z,10.43
2023-03-13T21:05:31.915Z,2.28
2023-03-13T21:07:58.167Z,2.83
2023-03-13T21:10:24.579Z,2.60
2023-03-13T21:12:50.801Z,3.13
2023-03-13T21:15:17.090Z,1.80
2023-03-13T21:17:43.304Z,3.83
2023-03-13T21:20:13.611Z,3.80
2023-03-13T21:22:40.722Z,2.35
2023-03-13T21:25:07.867Z,2.10
2023-03-13T21:27:35.424Z,2.45
2023-03-13T21:30:02.099Z,2.47
2023-03-13T21:32:28.490Z,3.83
2023-03-13T21:34:55.244Z,5.72
2023-03-13T21:37:21.948Z,1.95
2023-03-13T21:39:51.908Z,1.67
2023-03-13T21:42:18.737Z,8.70
2023-03-13T21:44:45.561Z,12.05
2023-03-13T21:47:11.865Z,2.13
2023-03-13T21:49:38.123Z,2.75
2023-03-13T21:52:04.504Z,2.75
2023-03-13T21:54:30.753Z,3.95
2023-03-13T21:56:57.215Z,4.15
2023-03-13T21:59:25.161Z,5.35
2023-03-13T22:01:51.392Z,3.05
2023-03-13T22:04:17.622Z,3.70
2023-03-13T22:06:43.864Z,1.90
2023-03-13T22:09:10.097Z,3.38
2023-03-13T22:11:36.319Z,5.35
2023-03-13T22:14:02.559Z,4.43
2023-03-13T22:16:29.382Z,7.30
2023-03-13T22:18:55.607Z,5.32
2023-03-13T22:21:21.830Z,6.25
2023-03-13T22:23:48.036Z,19.40
2023-03-13T22:26:14.552Z,4.93
2023-03-13T22:28:40.981Z,6.30
2023-03-13T22:31:08.134Z,2.33
2023-03-13T22:33:34.910Z,3.20
2023-03-13T22:36:01.666Z,5.85
2023-03-13T22:38:28.481Z,2.88
2023-03-13T22:41:01.835Z,4.88
2023-03-13T22:43:28.655Z,2.03
2023-03-13T22:45:55.668Z,1.95
2023-03-13T22:50:59.863Z,1.52
2023-03-13T22:53:26.077Z,2.33
2023-03-13T22:55:52.295Z,5.93
2023-03-13T22:58:18.504Z,2.88
2023-03-13T23:00:44.947Z,8.48
2023-03-13T23:03:11.500Z,16.35
2023-03-13T23:05:38.822Z,2.70
2023-03-13T23:08:05.071Z,4.40
2023-03-13T23:10:31.289Z,2.70
2023-03-13T23:12:57.560Z,3.25
2023-03-13T23:15:24.702Z,3.45
2023-03-13T23:17:52.691Z,1.25
2023-03-13T23:20:19.054Z,1.80
2023-03-13T23:22:46.467Z,2.25
2023-03-13T23:25:13.882Z,1.80
2023-03-13T23:27:40.770Z,3.75
2023-03-13T23:30:08.539Z,1.77
2023-03-13T23:32:35.988Z,1.60
2023-03-13T23:35:03.462Z,1.55
2023-03-13T23:37:30.227Z,1.27
2023-03-13T23:39:56.506Z,9.05
2023-03-13T23:42:22.777Z,11.95
2023-03-13T23:44:49.010Z,5.32
2023-03-13T23:47:15.295Z,3.53
2023-03-13T23:49:41.573Z,0.98
2023-03-13T23:52:08.841Z,2.10
2023-03-13T23:54:35.190Z,5.20
2023-03-13T23:57:01.688Z,2.55
2023-03-13T23:59:27.950Z,1.00
